createdAt,value
2023-03-02T00:00:16.812Z,20.93
2023-03-02T00:03:19.678Z,17.10
2023-03-02T00:06:22.493Z,18.23
2023-03-02T00:09:25.398Z,17.10
2023-03-02T00:12:32.322Z,19.83
2023-03-02T00:15:35.059Z,19.17
2023-03-02T00:18:37.849Z,17.40
2023-03-02T00:21:40.610Z,18.17
2023-03-02T00:24:43.324Z,19.43
2023-03-02T00:27:47.454Z,18.43
2023-03-02T00:30:50.211Z,20.50
2023-03-02T00:33:54.326Z,19.17
2023-03-02T00:36:57.087Z,22.97
2023-03-02T00:39:59.743Z,16.67
2023-03-02T00:43:04.135Z,19.13
2023-03-02T00:46:11.897Z,22.47
2023-03-02T00:49:14.662Z,21.73
2023-03-02T00:52:17.987Z,19.87
2023-03-02T00:55:20.816Z,18.83
2023-03-02T00:58:25.049Z,19.83
2023-03-02T01:01:28.099Z,19.40
2023-03-02T01:04:33.964Z,22.97
2023-03-02T01:07:36.655Z,19.07
2023-03-02T01:10:40.117Z,19.80
2023-03-02T01:13:44.395Z,21.10
2023-03-02T01:16:47.707Z,17.13
2023-03-02T01:19:50.434Z,16.20
2023-03-02T01:22:53.177Z,17.77
2023-03-02T01:25:55.896Z,16.60
2023-03-02T01:29:00.090Z,20.00
2023-03-02T01:32:02.909Z,16.40
2023-03-02T01:35:06.727Z,19.53
2023-03-02T01:38:09.510Z,18.70
2023-03-02T01:41:12.794Z,19.07
2023-03-02T01:44:37.111Z,16.07
2023-03-02T01:47:40.720Z,19.43
2023-03-02T01:50:43.450Z,25.30
2023-03-02T01:53:48.815Z,24.77
2023-03-02T01:56:54.016Z,20.13
2023-03-02T02:00:06.549Z,18.70
2023-03-02T02:03:13.705Z,18.90
2023-03-02T02:06:22.702Z,19.50
2023-03-02T02:09:27.820Z,20.77
2023-03-02T02:12:30.736Z,22.60
2023-03-02T02:15:35.111Z,17.67
2023-03-02T02:18:41.460Z,19.63
2023-03-02T02:21:44.250Z,21.57
2023-03-02T02:24:54.248Z,20.83
2023-03-02T02:27:58.683Z,21.97
2023-03-02T02:31:07.530Z,20.33
2023-03-02T02:34:15.144Z,23.67
2023-03-02T02:37:23.074Z,18.87
2023-03-02T02:40:44.395Z,19.77
2023-03-02T02:43:48.870Z,20.20
2023-03-02T02:46:51.578Z,18.93
2023-03-02T02:49:57.054Z,17.93
2023-03-02T02:53:04.290Z,17.70
2023-03-02T02:56:09.601Z,22.80
2023-03-02T02:59:19.437Z,18.47
2023-03-02T03:02:24.597Z,22.80
2023-03-02T03:05:27.382Z,21.97
2023-03-02T03:09:00.959Z,20.57
2023-03-02T03:12:07.958Z,18.13
2023-03-02T03:15:12.735Z,17.67
2023-03-02T03:18:23.827Z,18.10
2023-03-02T03:21:26.632Z,21.03
2023-03-02T03:24:32.283Z,22.13
2023-03-02T03:27:35.053Z,25.27
2023-03-02T03:30:39.228Z,18.83
2023-03-02T03:33:41.934Z,19.40
2023-03-02T03:36:45.209Z,22.50
2023-03-02T03:39:48.001Z,19.97
2023-03-02T03:42:50.622Z,21.50
2023-03-02T03:45:54.768Z,20.90
2023-03-02T03:48:58.163Z,16.97
2023-03-02T03:52:01.023Z,18.50
2023-03-02T03:55:04.133Z,17.83
2023-03-02T03:58:07.006Z,20.50
2023-03-02T04:01:11.128Z,20.00
2023-03-02T04:04:17.410Z,18.03
2023-03-02T04:07:20.217Z,20.50
2023-03-02T04:10:22.996Z,21.13
2023-03-02T04:13:26.179Z,18.77
2023-03-02T04:16:31.374Z,25.33
2023-03-02T04:19:35.576Z,22.03
2023-03-02T04:22:38.391Z,18.60
2023-03-02T04:25:41.264Z,17.03
2023-03-02T04:28:44.240Z,23.40
2023-03-02T04:31:48.859Z,17.70
2023-03-02T04:34:51.575Z,19.00
2023-03-02T04:37:54.380Z,18.30
2023-03-02T04:40:58.254Z,19.47
2023-03-02T04:44:01.200Z,21.43
2023-03-02T04:47:05.231Z,24.43
2023-03-02T04:50:10.571Z,19.40
2023-03-02T04:53:13.479Z,20.83
2023-03-02T04:56:16.234Z,19.53
2023-03-02T04:59:22.496Z,25.90
2023-03-02T05:02:26.733Z,17.97
2023-03-02T05:05:30.734Z,21.77
2023-03-02T05:08:33.457Z,22.37
2023-03-02T05:11:37.024Z,24.40
2023-03-02T05:14:39.921Z,18.87
2023-03-02T05:17:44.081Z,19.97
2023-03-02T05:20:46.939Z,22.93
2023-03-02T05:23:51.053Z,19.67
2023-03-02T05:26:53.752Z,19.57
2023-03-02T05:29:56.553Z,20.03
2023-03-02T05:33:00.744Z,18.27
2023-03-02T05:36:03.553Z,24.40
2023-03-02T05:39:08.393Z,20.20
2023-03-02T05:42:11.504Z,20.67
2023-03-02T05:45:21.478Z,18.57
2023-03-02T05:48:25.590Z,22.73
2023-03-02T05:51:28.882Z,25.47
2023-03-02T05:54:32.241Z,19.87
2023-03-02T05:57:35.068Z,23.70
2023-03-02T06:00:37.693Z,20.37
2023-03-02T06:03:41.811Z,27.90
2023-03-02T06:06:44.600Z,24.87
2023-03-02T06:09:47.390Z,26.67
2023-03-02T06:12:50.200Z,24.60
2023-03-02T06:15:52.871Z,25.77
2023-03-02T06:18:56.912Z,25.67
2023-03-02T06:21:59.603Z,24.77
2023-03-02T06:25:02.418Z,22.10
2023-03-02T06:28:05.481Z,24.50
2023-03-02T06:31:08.183Z,26.97
2023-03-02T06:34:12.256Z,25.33
2023-03-02T06:37:14.992Z,24.60
2023-03-02T06:40:18.122Z,27.17
2023-03-02T06:43:20.738Z,27.70
2023-03-02T06:46:23.524Z,20.73
2023-03-02T06:49:27.750Z,23.60
2023-03-02T06:52:30.507Z,26.23
2023-03-02T06:55:33.230Z,22.43
2023-03-02T06:58:36.084Z,24.93
2023-03-02T07:01:39.333Z,26.77
2023-03-02T07:04:43.441Z,30.33
2023-03-02T07:07:46.581Z,27.10
2023-03-02T07:10:49.390Z,27.30
2023-03-02T07:13:52.057Z,25.20
2023-03-02T07:16:57.374Z,26.93
2023-03-02T07:20:01.520Z,24.33
2023-03-02T07:23:04.310Z,25.33
2023-03-02T07:26:08.786Z,25.10
2023-03-02T07:29:11.521Z,26.97
2023-03-02T07:32:14.209Z,27.87
2023-03-02T07:35:18.599Z,28.37
2023-03-02T07:38:21.267Z,26.10
2023-03-02T07:41:24.021Z,29.20
2023-03-02T07:44:27.335Z,27.90
2023-03-02T07:47:30.176Z,24.07
2023-03-02T07:50:34.570Z,25.87
2023-03-02T07:53:38.471Z,28.37
2023-03-02T07:56:41.147Z,25.43
2023-03-02T07:59:44.250Z,23.87
2023-03-02T08:02:47.318Z,26.93
2023-03-02T08:05:51.588Z,27.33
2023-03-02T08:08:54.435Z,24.83
2023-03-02T08:11:57.256Z,27.37
2023-03-02T08:14:59.988Z,28.70
2023-03-02T08:18:03.029Z,25.83
2023-03-02T08:21:12.912Z,31.53
2023-03-02T08:24:15.611Z,25.93
2023-03-02T08:27:18.411Z,29.00
2023-03-02T08:30:21.465Z,23.20
2023-03-02T08:33:24.417Z,26.60
2023-03-02T08:36:28.532Z,25.30
2023-03-02T08:39:32.139Z,27.80
2023-03-02T08:42:34.949Z,26.47
2023-03-02T08:45:38.063Z,24.83
2023-03-02T08:48:41.385Z,26.17
2023-03-02T08:51:46.340Z,26.20
2023-03-02T08:54:49.037Z,23.23
2023-03-02T08:57:51.817Z,25.00
2023-03-02T09:00:54.886Z,26.03
2023-03-02T09:03:59.647Z,28.53
2023-03-02T09:07:03.885Z,22.47
2023-03-02T09:10:06.834Z,24.20
2023-03-02T09:13:09.575Z,27.17
2023-03-02T09:16:13.075Z,22.03
2023-03-02T09:19:15.848Z,29.50
2023-03-02T09:22:19.882Z,26.47
2023-03-02T09:25:22.586Z,21.60
2023-03-02T09:28:25.717Z,23.63
2023-03-02T09:31:30.207Z,20.90
2023-03-02T09:34:33.235Z,21.63
2023-03-02T09:37:38.894Z,22.77
2023-03-02T09:40:53.087Z,26.00
2023-03-02T09:44:05.195Z,23.33
2023-03-02T09:47:29.947Z,21.63
2023-03-02T09:50:41.256Z,23.37
2023-03-02T09:53:52.991Z,24.10
2023-03-02T09:56:57.887Z,23.17
2023-03-02T10:00:18.316Z,20.87
2023-03-02T10:03:23.523Z,17.37
2023-03-02T10:06:26.938Z,22.27
2023-03-02T10:09:31.024Z,19.03
2023-03-02T10:12:49.379Z,24.10
2023-03-02T10:16:11.796Z,21.07
2023-03-02T10:19:21.245Z,16.47
2023-03-02T10:22:30.852Z,20.57
2023-03-02T10:25:40.592Z,17.80
2023-03-02T10:28:49.312Z,19.03
2023-03-02T10:31:58.549Z,17.20
2023-03-02T10:35:06.858Z,16.20
2023-03-02T10:38:13.946Z,17.70
2023-03-02T10:41:24.520Z,16.10
2023-03-02T10:44:30.774Z,15.77
2023-03-02T10:47:33.463Z,19.23
2023-03-02T10:50:36.352Z,17.40
2023-03-02T10:53:39.000Z,16.63
2023-03-02T10:56:50.313Z,16.77
2023-03-02T10:59:53.890Z,18.97
2023-03-02T11:02:58.424Z,18.30
2023-03-02T11:06:18.321Z,17.63
2023-03-02T11:09:20.923Z,19.63
2023-03-02T11:12:25.014Z,16.17
2023-03-02T11:15:35.652Z,15.40
2023-03-02T11:18:40.932Z,19.17
2023-03-02T11:21:49.614Z,18.17
2023-03-02T11:24:57.054Z,18.07
2023-03-02T11:28:06.439Z,17.60
2023-03-02T11:31:17.549Z,14.00
2023-03-02T11:34:35.218Z,15.95
2023-03-02T11:37:43.561Z,18.05
2023-03-02T11:40:49.790Z,16.55
2023-03-02T11:43:55.446Z,14.70
2023-03-02T11:47:01.919Z,19.85
2023-03-02T11:50:06.521Z,18.17
2023-03-02T11:53:14.854Z,18.33
2023-03-02T11:56:17.733Z,22.30
2023-03-02T11:59:27.509Z,20.30
2023-03-02T12:02:31.471Z,16.48
2023-03-02T12:05:37.037Z,15.18
2023-03-02T12:08:41.215Z,16.63
2023-03-02T12:11:46.896Z,20.42
2023-03-02T12:14:52.305Z,20.30
2023-03-02T12:17:54.995Z,16.30
2023-03-02T12:21:06.343Z,17.92
2023-03-02T12:24:24.685Z,17.15
2023-03-02T12:27:28.541Z,18.33
2023-03-02T12:30:32.561Z,19.37
2023-03-02T12:33:44.355Z,20.07
2023-03-02T12:36:47.727Z,21.13
2023-03-02T12:40:35.015Z,18.15
2023-03-02T12:43:38.595Z,16.08
2023-03-02T12:46:46.864Z,16.02
2023-03-02T12:49:55.495Z,15.80
2023-03-02T12:52:59.971Z,17.75
2023-03-02T12:56:02.770Z,16.45
2023-03-02T12:59:05.551Z,17.10
2023-03-02T13:02:18.270Z,16.65
2023-03-02T13:05:22.815Z,17.50
2023-03-02T13:08:28.964Z,14.82
2023-03-02T13:11:34.083Z,18.85
2023-03-02T13:14:36.735Z,19.58
2023-03-02T13:17:40.764Z,18.05
2023-03-02T13:20:43.790Z,16.25
2023-03-02T13:23:48.993Z,20.23
2023-03-02T13:26:57.487Z,17.42
2023-03-02T13:30:10.949Z,17.73
2023-03-02T13:33:23.806Z,16.90
2023-03-02T13:36:28.794Z,16.23
2023-03-02T13:39:32.564Z,16.33
2023-03-02T13:42:41.161Z,16.88
2023-03-02T13:45:53.362Z,17.42
2023-03-02T13:49:09.799Z,17.27
2023-03-02T13:52:22.207Z,17.52
2023-03-02T13:55:25.304Z,18.55
2023-03-02T13:58:29.629Z,16.40
2023-03-02T14:01:32.458Z,20.23
2023-03-02T14:04:36.519Z,17.27
2023-03-02T14:07:39.262Z,17.48
2023-03-02T14:10:42.429Z,17.15
2023-03-02T14:13:48.548Z,15.85
2023-03-02T14:16:51.959Z,17.70
2023-03-02T14:19:56.144Z,16.65
2023-03-02T14:23:02.945Z,17.80
2023-03-02T14:26:20.624Z,18.23
2023-03-02T14:29:26.611Z,15.77
2023-03-02T14:32:29.312Z,15.32
2023-03-02T14:35:33.405Z,22.48
2023-03-02T14:38:36.480Z,21.70
2023-03-02T14:41:52.852Z,17.27
2023-03-02T14:44:56.633Z,16.75
2023-03-02T14:47:59.270Z,18.00
2023-03-02T14:51:04.007Z,18.77
2023-03-02T14:54:09.371Z,16.80
2023-03-02T14:57:18.078Z,15.02
2023-03-02T15:00:21.603Z,15.65
2023-03-02T15:03:25.619Z,16.90
2023-03-02T15:06:32.197Z,19.98
2023-03-02T15:09:35.061Z,17.25
2023-03-02T15:12:37.822Z,15.35
2023-03-02T15:15:41.423Z,14.10
2023-03-02T15:18:44.285Z,15.90
2023-03-02T15:21:48.283Z,16.88
2023-03-02T15:24:50.920Z,15.18
2023-03-02T15:27:55.632Z,15.90
2023-03-02T15:30:58.321Z,15.07
2023-03-02T15:34:00.958Z,15.95
2023-03-02T15:37:04.968Z,14.23
2023-03-02T15:40:09.617Z,17.40
2023-03-02T15:43:12.327Z,16.00
2023-03-02T15:46:15.442Z,19.57
2023-03-02T15:49:22.567Z,13.20
2023-03-02T15:52:27.149Z,16.33
2023-03-02T15:55:29.830Z,16.57
2023-03-02T15:58:32.514Z,18.43
2023-03-02T16:01:35.194Z,16.87
2023-03-02T16:04:37.981Z,15.97
2023-03-02T16:07:42.032Z,14.83
2023-03-02T16:10:44.712Z,17.63
2023-03-02T16:13:47.368Z,17.73
2023-03-02T16:16:50.100Z,15.40
2023-03-02T16:19:52.770Z,16.33
2023-03-02T16:22:57.714Z,18.65
2023-03-02T16:26:08.308Z,18.98
2023-03-02T16:29:12.618Z,18.47
2023-03-02T16:32:15.689Z,17.80
2023-03-02T16:35:18.545Z,15.37
2023-03-02T16:38:22.547Z,17.07
2023-03-02T16:41:25.713Z,19.00
2023-03-02T16:44:29.124Z,14.67
2023-03-02T16:47:31.780Z,15.10
2023-03-02T16:50:34.493Z,18.77
2023-03-02T16:53:40.629Z,19.00
2023-03-02T16:56:45.199Z,15.80
2023-03-02T16:59:47.941Z,14.80
2023-03-02T17:02:50.968Z,15.07
2023-03-02T17:05:53.618Z,17.90
2023-03-02T17:08:57.720Z,17.80
2023-03-02T17:12:00.411Z,15.97
2023-03-02T17:15:03.128Z,16.70
2023-03-02T17:18:05.750Z,28.07
2023-03-02T17:21:09.261Z,21.97
2023-03-02T17:24:13.670Z,18.60
2023-03-02T17:27:24.968Z,19.80
2023-03-02T17:30:28.421Z,20.23
2023-03-02T17:33:32.149Z,17.67
2023-03-02T17:36:36.795Z,19.90
2023-03-02T17:39:40.878Z,18.53
2023-03-02T17:42:43.825Z,19.03
2023-03-02T17:45:46.789Z,22.33
2023-03-02T17:48:54.047Z,20.70
2023-03-02T17:51:57.525Z,18.87
2023-03-02T17:55:01.557Z,22.30
2023-03-02T17:58:04.194Z,21.67
2023-03-02T18:01:07.429Z,26.67
2023-03-02T18:04:10.061Z,23.40
2023-03-02T18:07:12.921Z,22.60
2023-03-02T18:10:17.118Z,19.83
2023-03-02T18:13:19.924Z,22.60
2023-03-02T18:16:22.774Z,21.60
2023-03-02T18:19:25.517Z,22.20
2023-03-02T18:22:28.196Z,19.73
2023-03-02T18:25:32.149Z,20.60
2023-03-02T18:28:34.901Z,20.93
2023-03-02T18:31:37.708Z,20.43
2023-03-02T18:34:40.614Z,22.57
2023-03-02T18:37:43.347Z,19.30
2023-03-02T18:40:47.750Z,20.33
2023-03-02T18:43:50.684Z,19.87
2023-03-02T18:46:53.323Z,20.57
2023-03-02T18:49:55.992Z,22.00
2023-03-02T18:52:58.630Z,22.60
2023-03-02T18:56:02.603Z,26.63
2023-03-02T18:59:07.135Z,25.47
2023-03-02T19:02:14.109Z,22.43
2023-03-02T19:05:19.477Z,24.57
2023-03-02T19:08:23.342Z,19.60
2023-03-02T19:11:27.381Z,26.87
2023-03-02T19:14:30.283Z,23.70
2023-03-02T19:17:32.883Z,22.93
2023-03-02T19:20:35.695Z,22.07
2023-03-02T19:23:38.383Z,24.80
2023-03-02T19:26:42.538Z,24.60
2023-03-02T19:29:45.563Z,23.77
2023-03-02T19:32:48.202Z,21.00
2023-03-02T19:35:51.097Z,19.67
2023-03-02T19:38:54.085Z,25.33
2023-03-02T19:41:58.074Z,23.87
2023-03-02T19:45:00.842Z,22.43
2023-03-02T19:48:05.668Z,25.83
2023-03-02T19:51:09.277Z,24.00
2023-03-02T19:54:11.851Z,25.27
2023-03-02T19:57:15.853Z,22.87
2023-03-02T20:00:20.947Z,28.23
2023-03-02T20:03:23.523Z,26.57
2023-03-02T20:06:30.362Z,25.43
2023-03-02T20:09:33.298Z,26.90
2023-03-02T20:12:37.840Z,25.87
2023-03-02T20:15:44.455Z,24.60
2023-03-02T20:18:47.167Z,23.10
2023-03-02T20:21:50.905Z,23.67
2023-03-02T20:24:53.545Z,22.97
2023-03-02T20:27:58.824Z,23.47
2023-03-02T20:31:06.991Z,24.27
2023-03-02T20:34:12.588Z,25.60
2023-03-02T20:37:16.396Z,24.50
2023-03-02T20:40:24.805Z,25.37
2023-03-02T20:43:32.072Z,22.63
2023-03-02T20:46:42.426Z,27.50
2023-03-02T20:49:50.188Z,25.87
2023-03-02T20:52:58.543Z,24.20
2023-03-02T20:56:01.294Z,30.77
2023-03-02T20:59:05.363Z,25.33
2023-03-02T21:02:09.757Z,30.47
2023-03-02T21:05:15.898Z,26.03
2023-03-02T21:08:20.294Z,25.33
2023-03-02T21:11:24.409Z,22.47
2023-03-02T21:14:31.028Z,25.23
2023-03-02T21:17:35.916Z,27.87
2023-03-02T21:20:40.215Z,26.20
2023-03-02T21:23:43.922Z,21.43
2023-03-02T21:26:47.665Z,23.57
2023-03-02T21:29:51.772Z,23.30
2023-03-02T21:32:55.022Z,24.20
2023-03-02T21:35:57.928Z,23.13
2023-03-02T21:39:00.860Z,24.30
2023-03-02T21:42:03.664Z,22.07
2023-03-02T21:45:08.864Z,23.27
2023-03-02T21:48:14.323Z,26.07
2023-03-02T21:51:17.212Z,22.90
2023-03-02T21:54:19.905Z,22.17
2023-03-02T21:57:22.543Z,25.23
2023-03-02T22:00:29.319Z,24.80
2023-03-02T22:03:31.929Z,24.13
2023-03-02T22:06:35.598Z,24.40
2023-03-02T22:09:38.369Z,28.33
2023-03-02T22:12:42.044Z,22.73
2023-03-02T22:15:47.114Z,28.10
2023-03-02T22:18:53.980Z,25.40
2023-03-02T22:21:57.871Z,23.80
2023-03-02T22:25:00.872Z,24.13
2023-03-02T22:28:06.932Z,25.80
2023-03-02T22:31:18.309Z,22.30
2023-03-02T22:34:25.375Z,25.73
2023-03-02T22:37:30.398Z,28.93
2023-03-02T22:40:35.544Z,24.63
2023-03-02T22:43:38.373Z,24.33
2023-03-02T22:46:42.824Z,21.33
2023-03-02T22:49:47.139Z,20.60
2023-03-02T22:52:50.393Z,19.93
2023-03-02T22:55:59.132Z,23.20
2023-03-02T22:59:07.626Z,22.73
2023-03-02T23:02:16.463Z,23.97
2023-03-02T23:05:26.600Z,24.30
2023-03-02T23:08:31.165Z,25.30
2023-03-02T23:11:38.731Z,23.90
2023-03-02T23:14:47.946Z,22.07
2023-03-02T23:17:52.085Z,25.40
2023-03-02T23:20:55.879Z,25.10
2023-03-02T23:23:58.746Z,20.83
2023-03-02T23:27:01.909Z,22.47
2023-03-02T23:30:06.080Z,25.10
2023-03-02T23:33:10.482Z,22.60
2023-03-02T23:36:13.702Z,24.57
2023-03-02T23:39:17.617Z,19.73
2023-03-02T23:42:20.350Z,20.00
2023-03-02T23:45:23.156Z,22.57
2023-03-02T23:48:27.415Z,26.57
2023-03-02T23:51:30.242Z,27.10
2023-03-02T23:54:33.129Z,25.63
2023-03-02T23:57:35.991Z,24.03
